Time;durP1;ratioP1;P1;durP2;ratioP2;P2;SDS_P1;SDS_P2;PMS_P1;PMS_P2;Temp;Humidity;BMP_temperature;BMP_pressure;BME280_temperature;BME280_humidity;BME280_pressure;Samples;Min_cycle;Max_cycle;Signal;HPM_P1;HPM_P2
2021/12/03 00:01:39;;;;;;;14.70;4.00;;;;;;;;;;5041688;28;20175;-66
2021/12/03 00:04:06;;;;;;;10.68;4.07;;;;;;;;;;5047955;28;20270;-65
2021/12/03 00:06:36;;;;;;;5.97;3.95;;;;;;;;;;5046773;28;20186;-65
2021/12/03 00:09:04;;;;;;;10.00;4.60;;;;;;;;;;5034142;28;20292;-64
2021/12/03 00:11:31;;;;;;;13.65;5.57;;;;;;;;;;5041858;28;20202;-65
2021/12/03 00:13:57;;;;;;;5.88;4.78;;;;;;;;;;5044964;28;20175;-65
2021/12/03 00:16:24;;;;;;;7.18;3.75;;;;;;;;;;5047942;28;20178;-66
2021/12/03 00:18:50;;;;;;;5.32;3.35;;;;;;;;;;5050883;28;20286;-66
2021/12/03 00:21:17;;;;;;;8.68;3.90;;;;;;;;;;5046790;28;20183;-66
2021/12/03 00:23:44;;;;;;;10.45;4.30;;;;;;;;;;5051624;28;20230;-67
2021/12/03 00:26:10;;;;;;;10.23;3.22;;;;;;;;;;5041204;28;20244;-67
2021/12/03 00:28:37;;;;;;;7.65;3.60;;;;;;;;;;5044718;28;20322;-67
2021/12/03 00:31:05;;;;;;;7.07;3.50;;;;;;;;;;5042940;28;20214;-67
2021/12/03 00:33:31;;;;;;;8.63;4.20;;;;;;;;;;5040729;28;20270;-66
2021/12/03 00:36:04;;;;;;;7.05;3.58;;;;;;;;;;5040367;28;20183;-66
2021/12/03 00:38:35;;;;;;;6.93;3.50;;;;;;;;;;5041777;28;20187;-65
2021/12/03 00:41:05;;;;;;;10.35;5.00;;;;;;;;;;5040860;28;20686;-65
2021/12/03 00:43:32;;;;;;;8.23;4.43;;;;;;;;;;5049769;28;20186;-65
2021/12/03 00:46:05;;;;;;;10.98;4.47;;;;;;;;;;5044714;28;20269;-67
2021/12/03 00:48:31;;;;;;;6.03;4.50;;;;;;;;;;5049764;28;20178;-65
2021/12/03 00:50:58;;;;;;;6.68;4.35;;;;;;;;;;5037315;28;20211;-65
2021/12/03 00:53:24;;;;;;;13.70;5.13;;;;;;;;;;5049746;28;20636;-66
2021/12/03 00:55:53;;;;;;;5.72;4.72;;;;;;;;;;5045848;28;20686;-64
2021/12/03 00:58:20;;;;;;;12.77;5.00;;;;;;;;;;5041889;28;20190;-64
2021/12/03 01:00:47;;;;;;;12.05;5.57;;;;;;;;;;5052515;28;20262;-64
2021/12/03 01:03:14;;;;;;;10.23;4.68;;;;;;;;;;5039679;28;20215;-64
2021/12/03 01:05:41;;;;;;;14.57;5.38;;;;;;;;;;5046086;28;20210;-64
2021/12/03 01:08:07;;;;;;;11.77;4.18;;;;;;;;;;5041394;28;20859;-65
2021/12/03 01:10:34;;;;;;;7.20;3.28;;;;;;;;;;5047081;28;20210;-67
2021/12/03 01:13:01;;;;;;;8.50;4.05;;;;;;;;;;5045013;28;20639;-65
2021/12/03 01:15:33;;;;;;;5.43;3.63;;;;;;;;;;5047112;28;20184;-65
2021/12/03 01:18:01;;;;;;;7.10;4.43;;;;;;;;;;5044614;28;20257;-65
2021/12/03 01:20:28;;;;;;;7.10;4.90;;;;;;;;;;5039369;28;20221;-64
2021/12/03 01:22:55;;;;;;;8.43;5.00;;;;;;;;;;5045675;28;20214;-65
2021/12/03 01:25:22;;;;;;;10.10;5.38;;;;;;;;;;5059946;28;20296;-64
2021/12/03 01:27:50;;;;;;;9.60;5.40;;;;;;;;;;5041579;28;20246;-65
2021/12/03 01:30:18;;;;;;;6.90;4.28;;;;;;;;;;5041586;28;20365;-65
2021/12/03 01:32:44;;;;;;;7.88;4.60;;;;;;;;;;5038914;28;20187;-65
2021/12/03 01:35:11;;;;;;;13.50;5.32;;;;;;;;;;5043212;28;20675;-66
2021/12/03 01:37:37;;;;;;;9.43;4.50;;;;;;;;;;5043384;28;20639;-64
2021/12/03 01:40:07;;;;;;;9.82;4.90;;;;;;;;;;5042750;28;20194;-65
2021/12/03 01:42:34;;;;;;;8.38;4.25;;;;;;;;;;5046490;28;20190;-64
2021/12/03 01:45:00;;;;;;;8.82;4.40;;;;;;;;;;5039872;28;20183;-65
2021/12/03 01:47:27;;;;;;;10.70;4.43;;;;;;;;;;5043542;28;20548;-63
2021/12/03 01:49:53;;;;;;;7.60;4.45;;;;;;;;;;5049014;28;20219;-65
2021/12/03 01:52:20;;;;;;;8.52;3.95;;;;;;;;;;5041148;28;20183;-65
2021/12/03 01:54:47;;;;;;;5.18;3.92;;;;;;;;;;5045713;28;20638;-65
2021/12/03 01:57:13;;;;;;;10.82;4.22;;;;;;;;;;5041250;28;20187;-64
2021/12/03 01:59:40;;;;;;;7.88;4.55;;;;;;;;;;5042007;28;20186;-66
2021/12/03 02:02:08;;;;;;;13.88;4.15;;;;;;;;;;5047866;28;20193;-64
2021/12/03 02:04:35;;;;;;;11.10;5.13;;;;;;;;;;5041015;28;20552;-63
2021/12/03 02:07:02;;;;;;;12.45;4.47;;;;;;;;;;5036582;28;20533;-63
2021/12/03 02:09:28;;;;;;;5.88;3.92;;;;;;;;;;5039890;28;20214;-65
2021/12/03 02:11:54;;;;;;;7.40;4.47;;;;;;;;;;5040891;28;20184;-64
2021/12/03 02:14:21;;;;;;;6.80;3.65;;;;;;;;;;5047440;28;20511;-63
2021/12/03 02:16:48;;;;;;;7.68;4.10;;;;;;;;;;5041762;28;20590;-64
2021/12/03 02:19:14;;;;;;;5.18;3.92;;;;;;;;;;5038461;28;20289;-64
2021/12/03 02:21:41;;;;;;;10.40;5.00;;;;;;;;;;5046722;28;20270;-64
2021/12/03 02:24:08;;;;;;;5.68;4.13;;;;;;;;;;5044994;28;20230;-66
2021/12/03 02:26:34;;;;;;;7.25;4.40;;;;;;;;;;5045662;28;20209;-64
2021/12/03 02:29:00;;;;;;;8.05;3.65;;;;;;;;;;5041457;28;20198;-63
2021/12/03 02:31:27;;;;;;;6.72;4.05;;;;;;;;;;5042889;28;20186;-65
2021/12/03 02:33:54;;;;;;;8.95;4.32;;;;;;;;;;5050123;28;20218;-64
2021/12/03 02:36:21;;;;;;;5.53;3.60;;;;;;;;;;5046202;28;20180;-64
2021/12/03 02:38:47;;;;;;;16.00;5.05;;;;;;;;;;5049964;28;20635;-64
2021/12/03 02:41:14;;;;;;;15.05;3.97;;;;;;;;;;5049286;28;20198;-64
2021/12/03 02:43:40;;;;;;;7.07;3.58;;;;;;;;;;5036264;28;20256;-64
2021/12/03 02:46:07;;;;;;;7.43;4.28;;;;;;;;;;5039258;28;20195;-63
2021/12/03 02:48:35;;;;;;;9.27;4.85;;;;;;;;;;5048054;28;20191;-64
2021/12/03 02:51:02;;;;;;;4.47;3.38;;;;;;;;;;5041353;28;20241;-66
2021/12/03 02:53:29;;;;;;;6.88;4.55;;;;;;;;;;5034853;28;20206;-63
2021/12/03 02:55:55;;;;;;;10.18;5.07;;;;;;;;;;5033058;28;20191;-63
2021/12/03 02:58:22;;;;;;;5.57;4.45;;;;;;;;;;5046765;28;20183;-64
2021/12/03 03:00:49;;;;;;;6.25;4.47;;;;;;;;;;5041075;28;20186;-65
2021/12/03 03:03:16;;;;;;;9.98;5.25;;;;;;;;;;5033270;28;20202;-65
2021/12/03 03:05:46;;;;;;;7.03;4.80;;;;;;;;;;5041402;28;20195;-64
2021/12/03 03:08:12;;;;;;;8.32;5.25;;;;;;;;;;5031567;28;20195;-64
2021/12/03 03:10:42;;;;;;;8.05;4.85;;;;;;;;;;5039288;28;20207;-64
2021/12/03 03:13:08;;;;;;;7.30;5.18;;;;;;;;;;5040557;28;20202;-64
2021/12/03 03:15:35;;;;;;;5.28;4.60;;;;;;;;;;5049354;28;20676;-64
2021/12/03 03:18:15;;;;;;;5.97;4.53;;;;;;;;;;5047926;28;20639;-65
2021/12/03 03:20:42;;;;;;;6.88;5.00;;;;;;;;;;5031856;28;20233;-64
2021/12/03 03:23:09;;;;;;;10.23;5.00;;;;;;;;;;5038761;28;20226;-64
2021/12/03 03:25:36;;;;;;;8.07;4.60;;;;;;;;;;5043063;28;20206;-65
2021/12/03 03:28:03;;;;;;;9.55;5.35;;;;;;;;;;5039351;28;20178;-64
2021/12/03 03:30:29;;;;;;;7.47;5.45;;;;;;;;;;5043002;28;20231;-64
2021/12/03 03:32:56;;;;;;;6.47;5.18;;;;;;;;;;5048126;28;20267;-65
2021/12/03 03:35:23;;;;;;;6.43;5.63;;;;;;;;;;5035837;28;20240;-64
2021/12/03 03:37:49;;;;;;;6.40;5.90;;;;;;;;;;5039994;28;20182;-64
2021/12/03 03:40:16;;;;;;;6.38;5.47;;;;;;;;;;5033844;28;20194;-64
2021/12/03 03:42:42;;;;;;;8.52;5.70;;;;;;;;;;5042699;28;20546;-65
2021/12/03 03:45:10;;;;;;;7.88;5.32;;;;;;;;;;5037435;28;20191;-65
2021/12/03 03:47:38;;;;;;;6.07;5.47;;;;;;;;;;5037543;28;20251;-65
2021/12/03 03:50:05;;;;;;;9.02;6.18;;;;;;;;;;5048822;28;21316;-64
2021/12/03 03:52:31;;;;;;;19.52;6.15;;;;;;;;;;5037227;28;20234;-64
2021/12/03 03:54:58;;;;;;;6.18;5.40;;;;;;;;;;5039445;28;20282;-64
2021/12/03 03:57:24;;;;;;;10.55;5.95;;;;;;;;;;5047356;28;20234;-64
2021/12/03 03:59:51;;;;;;;11.38;6.32;;;;;;;;;;5045914;28;20270;-64
2021/12/03 04:02:17;;;;;;;12.52;6.78;;;;;;;;;;5051311;28;20187;-64
2021/12/03 04:04:43;;;;;;;8.32;6.38;;;;;;;;;;5045812;28;20214;-63
2021/12/03 04:07:10;;;;;;;8.48;6.53;;;;;;;;;;5041968;28;20244;-63
2021/12/03 04:09:36;;;;;;;10.18;6.85;;;;;;;;;;5052344;28;20206;-64
2021/12/03 04:12:03;;;;;;;8.35;6.53;;;;;;;;;;5051786;28;20194;-64
2021/12/03 04:14:29;;;;;;;8.98;6.13;;;;;;;;;;5047644;28;20671;-63
2021/12/03 04:16:56;;;;;;;11.30;6.82;;;;;;;;;;5045672;28;20183;-63
2021/12/03 04:19:22;;;;;;;7.05;6.35;;;;;;;;;;5034446;28;20202;-63
2021/12/03 04:21:49;;;;;;;6.97;6.28;;;;;;;;;;5037392;28;20648;-64
2021/12/03 04:24:15;;;;;;;6.82;6.20;;;;;;;;;;5042827;28;20682;-63
2021/12/03 04:26:42;;;;;;;11.20;7.45;;;;;;;;;;5047647;28;20546;-64
2021/12/03 04:29:08;;;;;;;8.82;6.65;;;;;;;;;;5049321;28;20187;-65
2021/12/03 04:31:34;;;;;;;9.50;7.15;;;;;;;;;;5045427;28;20179;-63
2021/12/03 04:34:01;;;;;;;7.63;6.85;;;;;;;;;;5044368;28;20271;-63
2021/12/03 04:36:27;;;;;;;8.88;7.18;;;;;;;;;;5051908;28;20179;-66
2021/12/03 04:38:54;;;;;;;14.48;7.78;;;;;;;;;;5044042;28;20196;-64
2021/12/03 04:41:21;;;;;;;11.52;7.70;;;;;;;;;;5050667;28;20191;-64
2021/12/03 04:43:47;;;;;;;10.20;6.78;;;;;;;;;;5043912;28;20268;-65
2021/12/03 04:46:13;;;;;;;10.32;7.00;;;;;;;;;;5048542;28;20673;-63
2021/12/03 04:48:40;;;;;;;10.10;8.15;;;;;;;;;;5042861;28;20218;-64
2021/12/03 04:51:06;;;;;;;8.93;6.90;;;;;;;;;;5042592;28;20249;-63
2021/12/03 04:53:33;;;;;;;7.97;7.22;;;;;;;;;;5051601;28;20275;-64
2021/12/03 04:55:59;;;;;;;10.57;7.97;;;;;;;;;;5041927;28;20215;-63
2021/12/03 04:58:26;;;;;;;8.45;7.57;;;;;;;;;;5051255;28;20187;-65
2021/12/03 05:00:56;;;;;;;11.02;7.55;;;;;;;;;;5043260;28;20197;-64
2021/12/03 05:03:24;;;;;;;9.57;7.45;;;;;;;;;;5039587;28;20193;-64
2021/12/03 05:05:55;;;;;;;9.35;7.90;;;;;;;;;;5042190;28;20722;-64
2021/12/03 05:08:23;;;;;;;8.52;7.63;;;;;;;;;;5033017;28;20268;-64
2021/12/03 05:10:49;;;;;;;9.13;6.75;;;;;;;;;;5048821;28;20206;-64
2021/12/03 05:13:18;;;;;;;8.48;7.68;;;;;;;;;;5042392;28;20654;-64
2021/12/03 05:15:45;;;;;;;8.52;7.18;;;;;;;;;;5048456;28;20187;-64
2021/12/03 05:18:12;;;;;;;10.60;8.45;;;;;;;;;;5039640;28;20210;-63
2021/12/03 05:20:39;;;;;;;8.50;7.70;;;;;;;;;;5034463;28;20260;-64
2021/12/03 05:23:05;;;;;;;15.50;7.88;;;;;;;;;;5048631;28;20234;-63
2021/12/03 05:25:33;;;;;;;8.73;7.35;;;;;;;;;;5030893;28;20195;-63
2021/12/03 05:28:00;;;;;;;15.40;8.55;;;;;;;;;;5046148;28;20202;-63
2021/12/03 05:30:27;;;;;;;12.20;8.20;;;;;;;;;;5046323;28;20203;-67
2021/12/03 05:32:54;;;;;;;9.23;8.32;;;;;;;;;;5041838;28;20183;-64
2021/12/03 05:35:22;;;;;;;13.65;8.40;;;;;;;;;;5046677;28;20384;-63
2021/12/03 05:37:48;;;;;;;9.55;8.15;;;;;;;;;;5033823;28;20183;-63
2021/12/03 05:40:15;;;;;;;9.95;8.88;;;;;;;;;;5044531;28;20218;-64
2021/12/03 05:42:44;;;;;;;11.88;9.48;;;;;;;;;;5042703;28;20658;-63
2021/12/03 05:45:12;;;;;;;15.02;9.57;;;;;;;;;;5045488;28;20193;-64
2021/12/03 05:47:40;;;;;;;15.00;9.43;;;;;;;;;;5042464;28;20197;-63
2021/12/03 05:50:08;;;;;;;11.88;8.82;;;;;;;;;;5037556;28;20234;-64
2021/12/03 05:52:34;;;;;;;12.07;9.82;;;;;;;;;;5036425;28;20258;-63
2021/12/03 05:55:01;;;;;;;12.23;9.82;;;;;;;;;;5033096;28;20285;-63
2021/12/03 05:57:28;;;;;;;11.50;10.30;;;;;;;;;;5033683;28;20183;-63
2021/12/03 05:59:54;;;;;;;12.23;10.45;;;;;;;;;;5032664;28;20219;-65
2021/12/03 06:02:21;;;;;;;11.68;10.18;;;;;;;;;;5036962;28;20240;-63
2021/12/03 06:04:48;;;;;;;10.68;9.57;;;;;;;;;;5034183;28;20214;-63
2021/12/03 06:07:14;;;;;;;13.75;9.45;;;;;;;;;;5035617;28;20253;-63
2021/12/03 06:09:42;;;;;;;11.63;10.48;;;;;;;;;;5034712;28;20613;-63
2021/12/03 06:12:09;;;;;;;11.40;10.10;;;;;;;;;;5031435;28;20195;-63
2021/12/03 06:14:37;;;;;;;12.52;10.35;;;;;;;;;;5036329;28;20179;-63
2021/12/03 06:17:03;;;;;;;11.73;9.55;;;;;;;;;;5032283;28;20283;-63
2021/12/03 06:19:30;;;;;;;15.93;10.98;;;;;;;;;;5035092;28;20214;-64
2021/12/03 06:21:56;;;;;;;12.05;10.82;;;;;;;;;;5031740;28;20199;-63
2021/12/03 06:24:24;;;;;;;12.63;11.20;;;;;;;;;;5041742;28;20598;-63
2021/12/03 06:26:50;;;;;;;12.52;11.25;;;;;;;;;;5039593;28;20245;-63
2021/12/03 06:29:17;;;;;;;12.18;10.88;;;;;;;;;;5045804;28;20949;-63
2021/12/03 06:31:44;;;;;;;13.45;12.05;;;;;;;;;;5043217;28;20639;-63
2021/12/03 06:34:11;;;;;;;13.48;12.05;;;;;;;;;;5038028;28;20183;-63
2021/12/03 06:36:37;;;;;;;15.27;11.52;;;;;;;;;;5042674;28;20178;-63
2021/12/03 06:39:04;;;;;;;17.55;12.30;;;;;;;;;;5038321;28;20188;-63
2021/12/03 06:41:30;;;;;;;12.38;11.15;;;;;;;;;;5040945;28;20205;-63
2021/12/03 06:43:57;;;;;;;13.63;12.20;;;;;;;;;;5038444;28;20232;-63
2021/12/03 06:46:24;;;;;;;15.23;12.20;;;;;;;;;;5035165;28;20190;-63
2021/12/03 06:48:51;;;;;;;14.50;12.70;;;;;;;;;;5043298;28;20189;-63
2021/12/03 06:51:17;;;;;;;14.27;12.50;;;;;;;;;;5035000;28;20217;-63
2021/12/03 06:53:56;;;;;;;15.25;12.60;;;;;;;;;;5041967;28;20217;-63
2021/12/03 06:56:23;;;;;;;16.08;12.35;;;;;;;;;;5044188;28;20229;-62
2021/12/03 06:58:51;;;;;;;15.45;13.50;;;;;;;;;;5038288;28;20593;-63
2021/12/03 07:01:17;;;;;;;16.58;12.82;;;;;;;;;;5042093;28;20199;-62
2021/12/03 07:03:43;;;;;;;16.98;13.38;;;;;;;;;;5047073;28;20191;-63
2021/12/03 07:06:10;;;;;;;15.02;12.88;;;;;;;;;;5037461;28;20191;-62
2021/12/03 07:08:37;;;;;;;14.52;13.02;;;;;;;;;;5040627;28;20182;-62
2021/12/03 07:11:04;;;;;;;14.65;12.82;;;;;;;;;;5037598;28;20219;-62
2021/12/03 07:13:31;;;;;;;15.68;14.15;;;;;;;;;;5032579;28;20616;-62
2021/12/03 07:15:58;;;;;;;16.67;14.93;;;;;;;;;;5044997;28;20225;-63
2021/12/03 07:18:25;;;;;;;15.93;13.82;;;;;;;;;;5044708;28;20259;-63
2021/12/03 07:20:52;;;;;;;16.15;13.73;;;;;;;;;;5043278;28;20287;-63
2021/12/03 07:23:18;;;;;;;19.00;13.98;;;;;;;;;;5050235;28;20230;-63
2021/12/03 07:25:45;;;;;;;22.85;15.80;;;;;;;;;;5048757;28;20193;-63
2021/12/03 07:28:13;;;;;;;15.07;13.70;;;;;;;;;;5046178;28;20198;-63
2021/12/03 07:30:40;;;;;;;18.27;15.90;;;;;;;;;;5042236;28;20221;-63
2021/12/03 07:33:11;;;;;;;16.27;14.68;;;;;;;;;;5046147;28;20174;-62
2021/12/03 07:35:38;;;;;;;15.73;14.23;;;;;;;;;;5052890;28;20186;-63
2021/12/03 07:38:05;;;;;;;17.33;15.57;;;;;;;;;;5044061;28;20197;-63
2021/12/03 07:40:32;;;;;;;17.98;15.75;;;;;;;;;;5048061;28;20198;-63
2021/12/03 07:42:58;;;;;;;18.55;16.40;;;;;;;;;;5051122;28;20195;-63
2021/12/03 07:45:26;;;;;;;19.98;16.27;;;;;;;;;;5047273;28;20187;-63
2021/12/03 07:47:52;;;;;;;18.90;16.90;;;;;;;;;;5048950;28;20175;-63
2021/12/03 07:50:19;;;;;;;20.40;16.95;;;;;;;;;;5045045;28;20527;-63
2021/12/03 07:52:45;;;;;;;21.42;15.80;;;;;;;;;;5052660;28;20174;-63
2021/12/03 07:55:13;;;;;;;17.70;15.63;;;;;;;;;;5049387;28;20182;-63
2021/12/03 07:57:39;;;;;;;19.10;17.13;;;;;;;;;;5047346;28;20183;-63
2021/12/03 08:00:07;;;;;;;17.05;15.30;;;;;;;;;;5040363;28;20206;-64
2021/12/03 08:02:34;;;;;;;17.48;15.57;;;;;;;;;;5041079;28;20183;-63
2021/12/03 08:05:01;;;;;;;19.33;15.23;;;;;;;;;;5036594;28;20190;-63
2021/12/03 08:07:28;;;;;;;18.70;16.35;;;;;;;;;;5045321;28;20187;-64
2021/12/03 08:09:54;;;;;;;18.23;16.02;;;;;;;;;;5044199;28;20678;-63
2021/12/03 08:12:21;;;;;;;17.50;15.68;;;;;;;;;;5043021;28;20746;-63
2021/12/03 08:14:48;;;;;;;21.50;15.85;;;;;;;;;;5052180;28;20197;-63
2021/12/03 08:17:14;;;;;;;18.83;16.08;;;;;;;;;;5042921;28;20324;-63
2021/12/03 08:19:42;;;;;;;20.88;17.05;;;;;;;;;;5044732;28;20211;-63
2021/12/03 08:22:08;;;;;;;16.17;14.43;;;;;;;;;;5044827;28;20182;-63
2021/12/03 08:24:35;;;;;;;18.92;16.13;;;;;;;;;;5052218;28;20187;-63
2021/12/03 08:27:02;;;;;;;19.17;15.63;;;;;;;;;;5042910;28;20205;-62
2021/12/03 08:29:29;;;;;;;21.48;16.70;;;;;;;;;;5066916;28;20203;-63
2021/12/03 08:31:55;;;;;;;19.40;15.45;;;;;;;;;;5045546;28;20198;-63
2021/12/03 08:34:23;;;;;;;16.70;15.00;;;;;;;;;;5050997;28;20206;-63
2021/12/03 08:36:49;;;;;;;19.65;15.77;;;;;;;;;;5043430;28;20182;-63
2021/12/03 08:39:19;;;;;;;17.50;15.75;;;;;;;;;;5042776;28;20553;-62
2021/12/03 08:41:45;;;;;;;17.02;15.32;;;;;;;;;;5051468;28;20517;-63
2021/12/03 08:44:12;;;;;;;17.83;15.63;;;;;;;;;;5048627;28;20267;-63
2021/12/03 08:46:39;;;;;;;19.67;16.10;;;;;;;;;;5045126;28;20176;-63
2021/12/03 08:49:15;;;;;;;19.27;16.05;;;;;;;;;;5050694;28;20191;-63
2021/12/03 08:56:56;;;;;;;18.52;16.65;;;;;;;;;;5039639;28;20260;-63
2021/12/03 08:59:23;;;;;;;18.33;16.42;;;;;;;;;;5051196;28;20587;-62
2021/12/03 09:01:50;;;;;;;17.50;15.68;;;;;;;;;;5044671;28;20198;-63
2021/12/03 09:04:17;;;;;;;16.25;14.60;;;;;;;;;;5050421;28;20252;-64
2021/12/03 09:06:43;;;;;;;17.08;15.38;;;;;;;;;;5066376;28;20201;-63
2021/12/03 09:09:10;;;;;;;17.55;15.65;;;;;;;;;;5050068;28;20542;-63
2021/12/03 09:11:37;;;;;;;17.70;15.82;;;;;;;;;;5050962;28;20598;-63
2021/12/03 09:14:11;;;;;;;17.42;15.63;;;;;;;;;;5048705;28;20256;-63
2021/12/03 09:16:38;;;;;;;19.13;16.40;;;;;;;;;;5042356;28;20193;-63
2021/12/03 09:19:11;;;;;;;19.25;15.80;;;;;;;;;;5047157;28;20518;-63
2021/12/03 09:21:38;;;;;;;18.02;16.15;;;;;;;;;;5040155;28;20187;-63
2021/12/03 09:24:13;;;;;;;18.40;16.38;;;;;;;;;;5047371;28;20264;-63
2021/12/03 09:26:41;;;;;;;20.50;17.25;;;;;;;;;;5048538;28;20190;-63
2021/12/03 09:29:13;;;;;;;22.67;17.70;;;;;;;;;;5039016;28;20195;-63
2021/12/03 09:31:42;;;;;;;20.27;15.82;;;;;;;;;;5041556;28;20285;-63
2021/12/03 09:34:10;;;;;;;19.38;16.75;;;;;;;;;;5044399;28;20213;-63
2021/12/03 09:36:41;;;;;;;17.88;16.05;;;;;;;;;;5041949;28;20582;-63
2021/12/03 09:39:09;;;;;;;17.13;15.38;;;;;;;;;;5045966;28;20191;-63
2021/12/03 09:41:37;;;;;;;20.85;18.35;;;;;;;;;;5044673;28;20658;-64
2021/12/03 09:44:04;;;;;;;17.92;15.70;;;;;;;;;;5044804;28;20190;-63
2021/12/03 09:46:31;;;;;;;17.38;15.68;;;;;;;;;;5031463;28;20191;-64
2021/12/03 09:51:38;;;;;;;19.80;16.10;;;;;;;;;;5044877;28;20214;-64
2021/12/03 09:54:20;;;;;;;18.05;15.35;;;;;;;;;;5064706;28;20187;-63
2021/12/03 09:56:47;;;;;;;20.75;15.40;;;;;;;;;;5048650;28;20243;-63
2021/12/03 09:59:39;;;;;;;20.27;15.43;;;;;;;;;;5064235;28;20187;-64
2021/12/03 10:02:55;;;;;;;18.05;15.48;;;;;;;;;;5041093;28;20207;-64
2021/12/03 10:05:35;;;;;;;26.58;16.27;;;;;;;;;;5037961;28;20182;-64
2021/12/03 10:10:59;;;;;;;20.33;15.90;;;;;;;;;;5038160;28;20563;-64
2021/12/03 10:13:18;;;;;;;18.05;15.70;;;;;;;;;;5039524;28;20187;-63
2021/12/03 10:18:45;;;;;;;17.70;15.75;;;;;;;;;;5053749;28;20190;-63
2021/12/03 10:39:26;;;;;;;18.23;16.27;;;;;;;;;;5042892;28;20190;-63
2021/12/03 10:44:43;;;;;;;16.52;14.75;;;;;;;;;;5036943;28;20198;-64
2021/12/03 10:52:35;;;;;;;18.00;15.90;;;;;;;;;;5043853;28;20231;-64
2021/12/03 10:55:38;;;;;;;21.17;16.63;;;;;;;;;;5033117;28;20176;-63
2021/12/03 10:58:35;;;;;;;21.95;17.15;;;;;;;;;;5043205;28;20194;-64
2021/12/03 11:18:13;;;;;;;28.20;21.20;;;;;;;;;;5048961;28;20270;-63
2021/12/03 12:11:01;;;;;;;35.75;26.33;;;;;;;;;;5038670;28;20276;-63
2021/12/03 13:59:13;;;;;;;71.20;45.22;;;;;;;;;;5036057;28;20198;-64
2021/12/03 14:02:04;;;;;;;71.35;44.00;;;;;;;;;;5034453;28;20278;-63
2021/12/03 14:13:02;;;;;;;69.68;36.38;;;;;;;;;;5043136;28;20658;-64
2021/12/03 14:42:22;;;;;;;58.00;33.63;;;;;;;;;;5039144;28;20183;-64
2021/12/03 14:44:27;;;;;;;58.13;34.08;;;;;;;;;;5042871;28;20206;-64
2021/12/03 14:53:24;;;;;;;46.60;30.25;;;;;;;;;;5046416;28;20678;-63
2021/12/03 14:55:45;;;;;;;44.70;30.98;;;;;;;;;;5039283;28;20248;-64
2021/12/03 14:58:15;;;;;;;50.05;30.02;;;;;;;;;;5043648;28;20666;-63
2021/12/03 15:03:39;;;;;;;37.60;26.27;;;;;;;;;;5036110;28;20199;-63
2021/12/03 15:06:26;;;;;;;47.72;30.80;;;;;;;;;;5039331;28;20661;-63
2021/12/03 15:24:37;;;;;;;45.75;30.30;;;;;;;;;;5045313;28;20310;-65
2021/12/03 15:32:07;;;;;;;41.95;28.75;;;;;;;;;;5048102;28;20218;-64
2021/12/03 16:12:14;;;;;;;39.20;25.35;;;;;;;;;;5057360;28;20514;-64
2021/12/03 16:25:11;;;;;;;26.55;21.67;;;;;;;;;;5049091;28;20194;-64
2021/12/03 16:44:21;;;;;;;23.40;18.45;;;;;;;;;;5043358;28;20189;-64
2021/12/03 16:52:10;;;;;;;21.05;18.15;;;;;;;;;;5050823;28;20198;-65
2021/12/03 16:54:43;;;;;;;21.40;17.65;;;;;;;;;;5037536;28;20196;-64
2021/12/03 16:57:12;;;;;;;20.05;17.35;;;;;;;;;;5049304;28;20269;-64
2021/12/03 16:59:41;;;;;;;21.13;15.68;;;;;;;;;;5045534;28;20188;-65
2021/12/03 17:02:12;;;;;;;19.25;16.67;;;;;;;;;;5043822;28;20225;-64
2021/12/03 17:07:44;;;;;;;21.50;16.58;;;;;;;;;;5034930;28;20208;-65
2021/12/03 17:28:52;;;;;;;15.68;13.23;;;;;;;;;;5042693;28;20244;-65
2021/12/03 17:44:40;;;;;;;11.43;9.48;;;;;;;;;;5046818;28;20589;-64
2021/12/03 17:47:30;;;;;;;9.32;8.48;;;;;;;;;;5046636;28;20555;-64
2021/12/03 17:52:49;;;;;;;9.70;8.02;;;;;;;;;;5049956;28;20182;-65
2021/12/03 18:00:27;;;;;;;9.27;8.38;;;;;;;;;;5038940;28;20190;-64
2021/12/03 18:03:02;;;;;;;9.13;8.07;;;;;;;;;;5042263;28;20217;-65
2021/12/03 18:08:19;;;;;;;8.27;6.82;;;;;;;;;;5037325;28;20282;-64
2021/12/03 18:11:02;;;;;;;7.90;6.88;;;;;;;;;;5050538;28;20701;-65
2021/12/03 18:16:45;;;;;;;9.52;7.28;;;;;;;;;;5046243;28;20193;-64
2021/12/03 18:46:43;;;;;;;5.88;4.57;;;;;;;;;;5047143;28;20512;-64
2021/12/03 18:49:29;;;;;;;5.72;5.10;;;;;;;;;;5040609;28;20190;-64
2021/12/03 18:52:08;;;;;;;6.32;5.15;;;;;;;;;;5038168;28;20294;-64
2021/12/03 18:54:43;;;;;;;8.57;5.40;;;;;;;;;;5043858;28;20221;-64
2021/12/03 18:57:19;;;;;;;16.30;5.75;;;;;;;;;;5047685;28;20241;-65
2021/12/03 18:59:58;;;;;;;9.63;5.70;;;;;;;;;;5049987;28;20187;-64
2021/12/03 19:02:26;;;;;;;8.27;5.53;;;;;;;;;;5045621;28;20681;-64
2021/12/03 19:05:00;;;;;;;11.07;4.85;;;;;;;;;;5032515;28;20190;-64
2021/12/03 19:07:31;;;;;;;6.03;4.70;;;;;;;;;;5036634;28;20185;-65
2021/12/03 19:10:05;;;;;;;7.32;5.47;;;;;;;;;;5040335;28;20214;-64
2021/12/03 19:12:33;;;;;;;6.05;4.75;;;;;;;;;;5041301;28;20278;-64
2021/12/03 19:15:01;;;;;;;8.15;4.45;;;;;;;;;;5047589;28;20186;-64
2021/12/03 19:17:35;;;;;;;7.78;4.63;;;;;;;;;;5036803;28;20171;-65
2021/12/03 19:20:03;;;;;;;6.15;4.75;;;;;;;;;;5042134;28;20214;-64
2021/12/03 19:22:30;;;;;;;7.05;4.40;;;;;;;;;;5037882;28;20233;-66
2021/12/03 19:24:58;;;;;;;5.72;4.75;;;;;;;;;;5038635;28;20214;-65
2021/12/03 19:27:25;;;;;;;8.88;4.18;;;;;;;;;;5048861;28;20190;-65
2021/12/03 19:29:57;;;;;;;8.35;4.70;;;;;;;;;;5045258;28;20204;-65
2021/12/03 19:32:26;;;;;;;7.07;5.22;;;;;;;;;;5045640;28;20245;-65
2021/12/03 19:34:52;;;;;;;8.45;4.55;;;;;;;;;;5038527;28;20278;-65
2021/12/03 19:37:19;;;;;;;11.10;4.68;;;;;;;;;;5048516;28;20602;-65
2021/12/03 19:39:45;;;;;;;6.90;5.13;;;;;;;;;;5048156;28;20211;-65
2021/12/03 19:42:19;;;;;;;7.22;4.60;;;;;;;;;;5039999;28;20232;-65
2021/12/03 19:44:58;;;;;;;6.57;5.18;;;;;;;;;;5037871;28;20222;-65
2021/12/03 19:47:33;;;;;;;6.22;5.43;;;;;;;;;;5035544;28;20237;-65
2021/12/03 19:50:23;;;;;;;8.32;4.70;;;;;;;;;;5031318;28;20512;-65
2021/12/03 19:53:01;;;;;;;4.75;4.25;;;;;;;;;;5036917;28;20642;-65
2021/12/03 19:55:27;;;;;;;6.10;4.75;;;;;;;;;;5047787;28;20198;-66
2021/12/03 19:57:54;;;;;;;8.40;4.18;;;;;;;;;;5040856;28;20210;-65
2021/12/03 20:00:25;;;;;;;7.18;4.30;;;;;;;;;;5047714;28;20179;-66
2021/12/03 20:02:52;;;;;;;5.40;4.60;;;;;;;;;;5048978;28;20193;-65
2021/12/03 20:05:18;;;;;;;5.13;4.40;;;;;;;;;;5037010;28;20226;-65
2021/12/03 20:07:45;;;;;;;5.57;4.15;;;;;;;;;;5035642;28;20179;-66
2021/12/03 20:10:13;;;;;;;7.10;4.30;;;;;;;;;;5037873;28;20589;-65
2021/12/03 20:12:40;;;;;;;3.97;3.10;;;;;;;;;;5037262;28;20540;-65
2021/12/03 20:15:09;;;;;;;8.15;4.28;;;;;;;;;;5047023;28;20258;-66
2021/12/03 20:17:43;;;;;;;4.32;3.72;;;;;;;;;;5048886;28;20187;-65
2021/12/03 20:20:10;;;;;;;4.95;3.85;;;;;;;;;;5036458;28;20669;-65
2021/12/03 20:22:47;;;;;;;4.95;3.53;;;;;;;;;;5040614;28;20237;-66
2021/12/03 20:28:07;;;;;;;5.78;3.60;;;;;;;;;;5049118;28;20218;-65
2021/12/03 20:30:45;;;;;;;3.17;2.88;;;;;;;;;;5044206;28;20245;-65
2021/12/03 20:36:03;;;;;;;6.97;3.00;;;;;;;;;;5039393;28;20178;-64
2021/12/03 20:38:30;;;;;;;3.38;3.03;;;;;;;;;;5046987;28;20185;-65
2021/12/03 20:41:03;;;;;;;5.05;3.40;;;;;;;;;;5051236;28;20283;-65
2021/12/03 20:43:55;;;;;;;5.82;3.55;;;;;;;;;;5033290;28;20191;-65
2021/12/03 20:51:35;;;;;;;5.07;3.35;;;;;;;;;;5051583;28;20678;-64
2021/12/03 21:10:15;;;;;;;3.35;3.00;;;;;;;;;;5050777;28;20304;-65
2021/12/03 21:12:45;;;;;;;2.78;2.50;;;;;;;;;;5043594;28;20191;-64
2021/12/03 21:15:27;;;;;;;3.78;2.65;;;;;;;;;;5049567;28;20190;-65
2021/12/03 21:18:10;;;;;;;4.93;3.05;;;;;;;;;;5051664;28;20545;-65
2021/12/03 21:20:54;;;;;;;8.10;3.47;;;;;;;;;;5042884;28;20226;-65
2021/12/03 21:23:22;;;;;;;7.85;3.30;;;;;;;;;;5051681;28;20230;-65
2021/12/03 21:25:55;;;;;;;4.63;3.30;;;;;;;;;;5051744;28;20203;-65
2021/12/03 21:31:05;;;;;;;4.15;3.00;;;;;;;;;;5035678;28;20238;-65
2021/12/03 21:38:49;;;;;;;3.70;3.33;;;;;;;;;;5048039;28;20197;-65
2021/12/03 21:41:22;;;;;;;5.57;3.72;;;;;;;;;;5049669;28;20718;-66
2021/12/03 21:43:50;;;;;;;4.03;3.10;;;;;;;;;;5051093;28;20194;-65
2021/12/03 21:46:18;;;;;;;3.38;3.05;;;;;;;;;;5040195;28;20186;-67
2021/12/03 21:48:45;;;;;;;4.75;2.85;;;;;;;;;;5043116;28;20607;-65
2021/12/03 21:51:11;;;;;;;4.80;3.33;;;;;;;;;;5048018;28;20506;-66
2021/12/03 21:53:38;;;;;;;4.07;3.22;;;;;;;;;;5045280;28;20190;-66
2021/12/03 21:56:05;;;;;;;2.72;2.50;;;;;;;;;;5041278;28;20583;-66
2021/12/03 21:58:31;;;;;;;5.05;3.50;;;;;;;;;;5042334;28;20230;-65
2021/12/03 22:00:58;;;;;;;5.32;3.10;;;;;;;;;;5046905;28;20187;-66
2021/12/03 22:03:24;;;;;;;4.28;3.40;;;;;;;;;;5038643;28;20215;-65
2021/12/03 22:05:52;;;;;;;3.50;3.20;;;;;;;;;;5046141;28;20205;-66
2021/12/03 22:08:18;;;;;;;5.68;3.15;;;;;;;;;;5037976;28;20248;-65
2021/12/03 22:10:45;;;;;;;6.30;3.38;;;;;;;;;;5049880;28;20280;-65
2021/12/03 22:13:11;;;;;;;7.28;3.75;;;;;;;;;;5043615;28;20183;-66
2021/12/03 22:15:39;;;;;;;3.92;3.47;;;;;;;;;;5044668;28;20260;-65
2021/12/03 22:18:05;;;;;;;9.55;3.72;;;;;;;;;;5049632;28;20183;-65
2021/12/03 22:20:32;;;;;;;3.47;3.10;;;;;;;;;;5041768;28;20290;-66